Yuendumu, Australia
Current Conditions -  °F | °C
As of 2:00 PM on Tuesday 23 Dec 2014 (Local Time) from YBAS Reporting Station
Broken Clouds Broken Clouds  
Wind Chill: 86°   Ceiling: 4600
Heat Index: 86°   Visibility: 6mi
Dew Point: 61°   Wind: 13mph
Humidity: 43%   Direction: 120°ESE
Pressure: 29.91"   Gusts: NA
Location:  22.26°S, 131.8°E
Report Text: YBAS 230500Z 12011KT 9999 BKN046 SCT130 BKN160 30/16 Q1013
Loading
Personal Weather Stations






























Interactive Weather Map New forecast layout! Learn more

10-Day Weather Forecast

Advertisements
Track Severe Weather on mobile